Herrick, Illinois
Current Conditions -  °F | °C
As of 9:35 PM on Friday 28 Nov 2014 (Local Time) from K1H2 Reporting Station
Clear Clear  
Wind Chill: 30°   Ceiling: Unl
Heat Index: 37°   Visibility: 10mi
Dew Point: 27°   Wind: 9mph
Humidity: 67%   Direction: 140°SE
Pressure: 29.96"   Gusts: NA
Location:  39.22°N, 88.98°W
Report Text: K1H2 290335Z AUTO 14008KT 10SM CLR 03/M03 A2996 RMK AO2 T00251030
Loading
Personal Weather Stations






























Interactive Weather Map New forecast layout! Learn more

10-Day Weather Forecast

Advertisements
Track Severe Weather on mobile